Airfield :
LOGIN :

Register | Disclaimer

   EN    FR    IT 

 










Legend :    VFR   Marginal VFR   IFR   Intensive IFR   Very Intensive IFR
Visi :
Ceiling :
>= 8 km
>= 3000ft
5 to 8 km
1000 to 3000 ft
1500m to 5 km
500 to 1000 ft
800 to 1500m
200 to 500 ft
< 800m
< 200 ft
Symbols :   Thunderstorms  Fog  Heavy snow  Heavy precipitations  Wind > 20 kt
SIGMETs :     Misc.  Thunderstorms  Icing  Turbulence  Mountain Waves  Volcanic Ashes






- Airport Elevation : 352 ft
- IATA code : KSD


ESOK - Karlstad

CURRENT METAR :
  • 251850Z AUTO 21004KT 9999 SCT081/// 16/08 Q1030

EXPIRED METARs :
  • 251820Z AUTO 21005KT 9999 BKN083/// 17/08 Q1030
  • 251750Z AUTO 21006KT 9999 FEW083/// 17/09 Q1030
  • 251720Z AUTO 21007KT 9999 NCD 18/08 Q1030
  • 251650Z AUTO 23008KT 9999 NCD 17/08 Q1030
  • 251620Z AUTO 20007KT 9999 FEW080/// SCT090/// 18/08 Q1029

Expired Forecast.



MET'MAP, your aeronautical weather chart ! - Copyright ORBIFLY December 2007 - Disclaimer

ORBIFLY MET'MAP TEAM :

Programming & Development : Alexandra Zaïnal
Concept & original design : Baudouin d'Aumeries
Assistance for programming : Marc-Olivier Méhu
Technical & hardware support : Manuel Goepfert

Contact : metmap@orbifly.com




SOURCES & CREDITS :

   NOAA